createdAt,value
2023-05-06T00:00:30.002Z,5.33
2023-05-06T00:03:00.290Z,5.13
2023-05-06T00:05:28.313Z,5.63
2023-05-06T00:07:56.245Z,4.57
2023-05-06T00:10:24.146Z,5.47
2023-05-06T00:12:52.023Z,4.33
2023-05-06T00:15:19.924Z,4.73
2023-05-06T00:17:47.897Z,4.60
2023-05-06T00:20:17.198Z,4.73
2023-05-06T00:22:45.126Z,4.60
2023-05-06T00:25:13.082Z,4.70
2023-05-06T00:27:40.896Z,4.90
2023-05-06T00:30:10.294Z,5.10
2023-05-06T00:32:38.192Z,4.40
2023-05-06T00:35:07.169Z,4.43
2023-05-06T00:37:36.588Z,4.90
2023-05-06T00:40:05.634Z,4.53
2023-05-06T00:42:33.976Z,5.03
2023-05-06T00:45:01.837Z,4.47
2023-05-06T00:47:29.888Z,4.53
2023-05-06T00:49:57.788Z,3.47
2023-05-06T00:52:26.204Z,4.50
2023-05-06T00:54:55.485Z,4.10
2023-05-06T00:57:23.509Z,4.33
2023-05-06T00:59:51.734Z,4.57
2023-05-06T01:02:19.705Z,4.37
2023-05-06T01:04:47.612Z,4.33
2023-05-06T01:07:21.440Z,4.20
2023-05-06T01:09:52.313Z,3.70
2023-05-06T01:12:24.389Z,4.20
2023-05-06T01:14:57.095Z,4.37
2023-05-06T01:17:26.011Z,4.03
2023-05-06T01:19:54.303Z,3.90
2023-05-06T01:22:22.160Z,3.67
2023-05-06T01:24:51.431Z,4.17
2023-05-06T01:27:19.312Z,4.40
2023-05-06T01:29:48.005Z,3.93
2023-05-06T01:32:27.365Z,4.40
2023-05-06T01:34:58.035Z,3.77
2023-05-06T01:37:29.225Z,3.77
2023-05-06T01:39:59.877Z,4.03
2023-05-06T01:42:28.100Z,4.30
2023-05-06T01:44:56.488Z,3.90
2023-05-06T01:47:24.584Z,4.00
2023-05-06T01:49:52.542Z,3.93
2023-05-06T01:52:22.143Z,3.80
2023-05-06T01:54:50.014Z,4.40
2023-05-06T01:57:19.210Z,4.10
2023-05-06T01:59:47.073Z,4.20
2023-05-06T02:02:15.093Z,4.20
2023-05-06T02:04:42.967Z,4.60
2023-05-06T02:07:10.823Z,4.30
2023-05-06T02:09:38.762Z,4.30
2023-05-06T02:12:06.845Z,4.10
2023-05-06T02:14:36.123Z,4.10
2023-05-06T02:17:07.088Z,4.33
2023-05-06T02:19:35.708Z,3.90
2023-05-06T02:22:03.779Z,4.40
2023-05-06T02:24:31.621Z,4.20
2023-05-06T02:26:59.536Z,4.70
2023-05-06T02:29:27.431Z,4.90
2023-05-06T02:31:57.071Z,4.40
2023-05-06T02:34:25.024Z,4.83
2023-05-06T02:36:52.927Z,4.57
2023-05-06T02:39:20.764Z,5.03
2023-05-06T02:41:48.621Z,5.00
2023-05-06T02:44:16.500Z,5.83
2023-05-06T02:46:45.637Z,5.20
2023-05-06T02:49:14.929Z,5.43
2023-05-06T02:51:42.902Z,5.70
2023-05-06T02:54:11.115Z,5.43
2023-05-06T02:56:38.995Z,5.53
2023-05-06T02:59:06.937Z,5.67
2023-05-06T03:01:34.920Z,5.60
2023-05-06T03:04:03.690Z,5.13
2023-05-06T03:06:33.081Z,5.83
2023-05-06T03:09:01.016Z,5.63
2023-05-06T03:11:31.452Z,6.10
2023-05-06T03:13:59.437Z,6.80
2023-05-06T03:16:27.622Z,6.23
2023-05-06T03:18:55.529Z,6.27
2023-05-06T03:21:23.559Z,6.43
2023-05-06T03:23:52.854Z,6.30
2023-05-06T03:26:21.320Z,6.53
2023-05-06T03:28:49.211Z,7.20
2023-05-06T03:31:17.138Z,6.80
2023-05-06T03:33:45.072Z,6.40
2023-05-06T03:36:14.157Z,6.13
2023-05-06T03:38:42.333Z,6.97
2023-05-06T03:41:11.557Z,6.30
2023-05-06T03:43:39.687Z,6.50
2023-05-06T03:46:08.114Z,6.83
2023-05-06T03:48:36.114Z,5.27
2023-05-06T03:51:04.238Z,6.23
2023-05-06T03:53:32.132Z,5.73
2023-05-06T03:56:01.804Z,5.93
2023-05-06T03:58:31.119Z,6.10
2023-05-06T04:01:00.953Z,5.93
2023-05-06T04:03:29.014Z,6.20
2023-05-06T04:05:57.076Z,5.30
2023-05-06T04:08:24.970Z,5.77
2023-05-06T04:10:53.014Z,5.77
2023-05-06T04:13:21.080Z,4.97
2023-05-06T04:15:51.188Z,4.67
2023-05-06T04:18:20.045Z,4.60
2023-05-06T04:20:49.047Z,4.27
2023-05-06T04:23:17.293Z,4.50
2023-05-06T04:25:48.758Z,4.40
2023-05-06T04:28:17.784Z,3.87
2023-05-06T04:30:45.811Z,3.43
2023-05-06T04:33:15.183Z,3.50
2023-05-06T04:35:51.227Z,3.40
2023-05-06T04:38:19.373Z,3.43
2023-05-06T04:40:47.233Z,3.53
2023-05-06T04:43:15.268Z,2.60
2023-05-06T04:45:49.531Z,3.00
2023-05-06T04:48:20.061Z,2.23
2023-05-06T04:50:48.004Z,2.40
2023-05-06T04:53:16.181Z,2.60
2023-05-06T04:55:44.179Z,2.70
2023-05-06T04:58:12.102Z,2.33
2023-05-06T05:00:40.272Z,2.77
2023-05-06T05:03:08.306Z,2.33
2023-05-06T05:05:37.684Z,2.70
2023-05-06T05:08:05.877Z,2.63
2023-05-06T05:10:33.796Z,2.10
2023-05-06T05:13:01.723Z,2.47
2023-05-06T05:15:29.588Z,2.57
2023-05-06T05:17:57.552Z,2.20
2023-05-06T05:20:25.525Z,2.30
2023-05-06T05:22:54.995Z,2.20
2023-05-06T05:25:22.881Z,2.20
2023-05-06T05:27:50.791Z,2.27
2023-05-06T05:30:18.829Z,1.87
2023-05-06T05:32:46.742Z,2.00
2023-05-06T05:35:14.800Z,1.90
2023-05-06T05:37:42.632Z,1.70
2023-05-06T05:40:12.723Z,2.00
2023-05-06T05:42:40.920Z,1.80
2023-05-06T05:45:09.986Z,1.97
2023-05-06T05:47:37.971Z,2.33
2023-05-06T05:50:06.606Z,1.87
2023-05-06T05:52:35.001Z,1.57
2023-05-06T05:55:02.872Z,1.70
2023-05-06T05:57:32.428Z,2.43
2023-05-06T06:00:00.434Z,1.93
2023-05-06T06:02:28.372Z,2.10
2023-05-06T06:04:56.370Z,2.20
2023-05-06T06:07:24.360Z,2.27
2023-05-06T06:09:52.224Z,2.40
2023-05-06T06:12:20.109Z,2.00
2023-05-06T06:14:49.379Z,2.63
2023-05-06T06:17:17.455Z,1.77
2023-05-06T06:19:46.408Z,1.80
2023-05-06T06:22:14.274Z,1.60
2023-05-06T06:24:42.222Z,1.80
2023-05-06T06:27:10.114Z,1.40
2023-05-06T06:29:37.982Z,1.57
2023-05-06T06:32:07.822Z,1.57
2023-05-06T06:34:35.784Z,1.60
2023-05-06T06:37:03.685Z,1.30
2023-05-06T06:39:31.681Z,1.50
2023-05-06T06:41:59.587Z,1.47
2023-05-06T06:44:27.500Z,1.20
2023-05-06T06:46:55.419Z,1.10
2023-05-06T06:49:24.684Z,1.30
2023-05-06T06:51:52.620Z,1.20
2023-05-06T06:54:20.476Z,1.17
2023-05-06T06:56:48.505Z,1.10
2023-05-06T06:59:16.415Z,1.40
2023-05-06T07:01:44.430Z,1.20
2023-05-06T07:04:12.401Z,0.87
2023-05-06T07:06:41.709Z,1.20
2023-05-06T07:09:09.709Z,1.00
2023-05-06T07:11:37.561Z,1.00
2023-05-06T07:14:05.423Z,1.00
2023-05-06T07:16:33.492Z,1.03
2023-05-06T07:19:01.576Z,1.03
2023-05-06T07:21:32.274Z,3.17
2023-05-06T07:24:01.596Z,1.07
2023-05-06T07:26:29.484Z,0.90
2023-05-06T07:28:57.344Z,1.00
2023-05-06T07:31:25.350Z,0.90
2023-05-06T07:33:53.246Z,0.83
2023-05-06T07:36:21.116Z,0.87
2023-05-06T07:38:49.020Z,1.07
2023-05-06T07:41:18.229Z,0.83
2023-05-06T07:43:46.376Z,1.77
2023-05-06T07:46:14.430Z,0.90
2023-05-06T07:48:42.334Z,1.00
2023-05-06T07:51:10.210Z,0.93
2023-05-06T07:53:40.162Z,1.03
2023-05-06T07:56:08.190Z,1.00
2023-05-06T07:58:37.624Z,1.10
2023-05-06T08:01:06.215Z,1.17
2023-05-06T08:03:35.035Z,1.00
2023-05-06T08:06:03.250Z,1.10
2023-05-06T08:08:31.218Z,1.03
2023-05-06T08:10:59.345Z,1.20
2023-05-06T08:13:28.159Z,1.00
2023-05-06T08:15:57.487Z,1.00
2023-05-06T08:18:25.486Z,0.90
2023-05-06T08:20:53.374Z,1.00
2023-05-06T08:23:21.489Z,0.90
2023-05-06T08:25:49.410Z,0.90
2023-05-06T08:28:17.329Z,1.00
2023-05-06T08:30:47.845Z,1.00
2023-05-06T08:33:17.141Z,1.00
2023-05-06T08:35:45.559Z,1.00
2023-05-06T08:38:13.547Z,10.80
2023-05-06T08:40:43.581Z,1.40
2023-05-06T08:43:13.820Z,0.80
2023-05-06T08:45:42.130Z,1.10
2023-05-06T08:48:10.580Z,1.40
2023-05-06T08:50:42.612Z,1.07
2023-05-06T08:53:13.829Z,0.90
2023-05-06T08:55:42.167Z,1.10
2023-05-06T08:58:10.302Z,1.30
2023-05-06T09:00:38.373Z,1.70
2023-05-06T09:03:06.557Z,1.30
2023-05-06T09:05:34.680Z,1.10
2023-05-06T09:08:04.155Z,1.27
2023-05-06T09:10:39.743Z,0.93
2023-05-06T09:13:08.001Z,1.40
2023-05-06T09:15:41.281Z,1.40
2023-05-06T09:18:09.544Z,0.90
2023-05-06T09:20:37.547Z,1.10
2023-05-06T09:23:08.479Z,2.30
2023-05-06T09:25:37.312Z,1.50
2023-05-06T09:28:05.488Z,1.30
2023-05-06T09:30:33.444Z,1.17
2023-05-06T09:33:04.886Z,1.20
2023-05-06T09:35:38.003Z,1.10
2023-05-06T09:38:07.577Z,1.00
2023-05-06T09:40:35.961Z,1.10
2023-05-06T09:43:04.102Z,1.40
2023-05-06T09:45:32.856Z,1.77
2023-05-06T09:48:01.788Z,1.00
2023-05-06T09:50:29.898Z,0.90
2023-05-06T09:52:57.920Z,1.00
2023-05-06T09:55:27.592Z,0.90
2023-05-06T09:57:55.645Z,0.87
2023-05-06T10:00:28.023Z,0.90
2023-05-06T10:02:56.402Z,0.93
2023-05-06T10:05:24.430Z,0.93
2023-05-06T10:07:52.396Z,0.90
2023-05-06T10:10:20.664Z,1.10
2023-05-06T10:12:50.059Z,0.80
2023-05-06T10:15:18.340Z,1.10
2023-05-06T10:17:48.175Z,1.10
2023-05-06T10:20:16.421Z,0.80
2023-05-06T10:22:53.686Z,0.90
2023-05-06T10:25:25.637Z,0.83
2023-05-06T10:27:55.240Z,1.10
2023-05-06T10:30:23.780Z,0.90
2023-05-06T10:32:51.781Z,0.83
2023-05-06T10:35:23.792Z,1.00
2023-05-06T10:37:51.892Z,0.93
2023-05-06T10:40:20.598Z,0.90
2023-05-06T10:42:48.624Z,0.80
2023-05-06T10:45:17.847Z,1.17
2023-05-06T10:48:10.744Z,1.43
2023-05-06T10:50:38.986Z,1.40
2023-05-06T10:53:06.832Z,1.57
2023-05-06T10:55:35.281Z,1.60
2023-05-06T10:58:04.420Z,1.80
2023-05-06T11:00:34.444Z,1.60
2023-05-06T11:03:03.174Z,1.80
2023-05-06T11:05:31.703Z,1.77
2023-05-06T11:08:10.534Z,1.83
2023-05-06T11:10:38.516Z,1.80
2023-05-06T11:13:26.321Z,1.77
2023-05-06T11:15:56.020Z,1.67
2023-05-06T11:18:45.662Z,1.60
2023-05-06T11:21:41.679Z,1.30
2023-05-06T11:24:13.119Z,1.42
2023-05-06T11:26:44.346Z,1.10
2023-05-06T11:29:12.333Z,1.30
2023-05-06T11:31:42.957Z,1.20
2023-05-06T11:34:12.867Z,1.00
2023-05-06T11:36:47.779Z,1.10
2023-05-06T11:39:15.794Z,1.20
2023-05-06T11:41:43.624Z,1.45
2023-05-06T11:44:12.684Z,1.10
2023-05-06T11:46:41.955Z,0.90
2023-05-06T11:49:14.567Z,1.10
2023-05-06T11:51:42.664Z,0.98
2023-05-06T11:54:11.040Z,0.90
2023-05-06T11:56:46.474Z,1.20
2023-05-06T11:59:14.411Z,1.00
2023-05-06T12:01:44.691Z,1.10
2023-05-06T12:04:13.264Z,0.75
2023-05-06T12:06:41.617Z,1.10
2023-05-06T12:09:12.118Z,0.85
2023-05-06T12:11:40.670Z,0.90
2023-05-06T12:14:10.158Z,0.88
2023-05-06T12:16:38.126Z,0.90
2023-05-06T12:19:07.571Z,0.90
2023-05-06T12:21:38.848Z,0.90
2023-05-06T12:24:07.593Z,0.90
2023-05-06T12:26:46.612Z,0.80
2023-05-06T12:29:17.195Z,0.90
2023-05-06T12:31:47.224Z,0.70
2023-05-06T12:34:18.479Z,0.90
2023-05-06T12:36:47.959Z,0.85
2023-05-06T12:39:17.689Z,1.10
2023-05-06T12:41:46.365Z,0.80
2023-05-06T12:44:34.080Z,0.90
2023-05-06T12:47:03.348Z,1.23
2023-05-06T12:52:25.180Z,0.90
2023-05-06T12:54:53.389Z,0.90
2023-05-06T12:57:21.492Z,0.93
2023-05-06T12:59:49.960Z,0.85
2023-05-06T13:02:18.130Z,0.93
2023-05-06T13:04:47.227Z,0.90
2023-05-06T13:07:15.135Z,0.88
2023-05-06T13:09:45.056Z,0.90
2023-05-06T13:12:13.411Z,0.77
2023-05-06T13:14:41.673Z,0.88
2023-05-06T13:17:09.971Z,0.77
2023-05-06T13:19:38.191Z,0.90
2023-05-06T13:22:08.929Z,0.70
2023-05-06T13:24:37.421Z,0.88
2023-05-06T13:27:07.399Z,0.80
2023-05-06T13:29:35.291Z,0.90
2023-05-06T13:32:05.744Z,0.70
2023-05-06T13:34:35.142Z,1.00
2023-05-06T13:37:03.188Z,0.80
2023-05-06T13:39:31.322Z,0.90
2023-05-06T13:41:59.379Z,1.00
2023-05-06T13:44:28.818Z,0.93
2023-05-06T13:46:56.876Z,0.90
2023-05-06T13:49:24.955Z,0.90
2023-05-06T13:51:53.814Z,0.93
2023-05-06T13:54:22.115Z,0.93
2023-05-06T13:56:50.409Z,0.90
2023-05-06T13:59:18.415Z,0.88
2023-05-06T14:01:49.642Z,0.88
2023-05-06T14:04:18.140Z,0.90
2023-05-06T14:06:46.151Z,1.17
2023-05-06T14:09:14.094Z,1.08
2023-05-06T14:11:42.423Z,1.08
2023-05-06T14:14:10.512Z,1.33
2023-05-06T14:16:38.554Z,0.93
2023-05-06T14:19:08.104Z,1.08
2023-05-06T14:21:36.319Z,1.08
2023-05-06T14:24:07.346Z,1.20
2023-05-06T14:26:35.867Z,1.20
2023-05-06T14:29:03.839Z,1.30
2023-05-06T14:31:31.896Z,2.10
2023-05-06T14:33:59.869Z,1.70
2023-05-06T14:36:29.156Z,1.70
2023-05-06T14:38:57.039Z,1.50
2023-05-06T14:41:24.895Z,1.50
2023-05-06T14:43:52.933Z,1.50
2023-05-06T14:46:21.264Z,1.88
2023-05-06T14:48:49.176Z,1.40
2023-05-06T14:51:17.101Z,1.88
2023-05-06T14:53:46.743Z,2.60
2023-05-06T14:56:14.766Z,2.20
2023-05-06T14:58:42.875Z,2.53
2023-05-06T15:01:11.133Z,2.78
2023-05-06T15:03:39.183Z,2.38
2023-05-06T15:06:07.529Z,3.67
2023-05-06T15:08:36.371Z,3.03
2023-05-06T15:11:06.183Z,4.00
2023-05-06T15:13:34.292Z,4.15
2023-05-06T15:16:02.376Z,3.47
2023-05-06T15:18:30.408Z,3.95
2023-05-06T15:21:01.534Z,3.70
2023-05-06T15:23:29.647Z,5.50
2023-05-06T15:25:58.142Z,6.57
2023-05-06T15:28:27.571Z,6.55
2023-05-06T15:30:55.769Z,5.00
2023-05-06T15:33:23.864Z,4.97
2023-05-06T15:35:51.819Z,4.23
2023-05-06T15:38:19.659Z,4.77
2023-05-06T15:40:50.526Z,4.40
2023-05-06T15:43:23.823Z,5.00
2023-05-06T15:45:53.718Z,5.73
2023-05-06T15:48:21.801Z,6.63
2023-05-06T15:50:49.990Z,7.33
2023-05-06T15:53:19.799Z,7.63
2023-05-06T15:55:56.703Z,6.20
2023-05-06T15:58:26.186Z,5.37
2023-05-06T16:00:55.790Z,6.73
2023-05-06T16:03:23.810Z,5.97
2023-05-06T16:05:53.960Z,5.13
2023-05-06T16:08:21.928Z,4.10
2023-05-06T16:10:49.872Z,4.43
2023-05-06T16:13:18.042Z,4.37
2023-05-06T16:15:46.258Z,4.10
2023-05-06T16:18:15.891Z,5.00
2023-05-06T16:20:43.985Z,4.67
2023-05-06T16:23:13.588Z,4.33
2023-05-06T16:25:41.608Z,4.30
2023-05-06T16:28:10.029Z,4.50
2023-05-06T16:30:38.054Z,4.37
2023-05-06T16:33:06.395Z,4.40
2023-05-06T16:35:36.305Z,4.50
2023-05-06T16:38:04.340Z,4.60
2023-05-06T16:40:32.717Z,4.60
2023-05-06T16:43:01.221Z,4.63
2023-05-06T16:45:29.250Z,5.00
2023-05-06T16:47:57.333Z,4.70
2023-05-06T16:50:25.641Z,4.10
2023-05-06T16:52:55.377Z,4.30
2023-05-06T16:55:23.596Z,4.27
2023-05-06T16:57:51.531Z,4.17
2023-05-06T17:00:21.052Z,4.20
2023-05-06T17:02:48.957Z,4.27
2023-05-06T17:05:17.355Z,4.90
2023-05-06T17:07:45.838Z,4.40
2023-05-06T17:10:15.072Z,4.50
2023-05-06T17:12:43.297Z,4.07
2023-05-06T17:15:11.960Z,4.47
2023-05-06T17:17:40.784Z,4.77
2023-05-06T17:20:10.274Z,4.57
2023-05-06T17:22:38.346Z,4.30
2023-05-06T17:25:06.935Z,3.57
2023-05-06T17:27:36.248Z,3.73
2023-05-06T17:30:04.693Z,3.90
2023-05-06T17:32:32.698Z,4.43
2023-05-06T17:35:01.300Z,4.17
2023-05-06T17:37:29.565Z,5.70
2023-05-06T17:39:57.608Z,5.10
2023-05-06T17:42:27.465Z,3.73
2023-05-06T17:44:56.945Z,3.37
2023-05-06T17:47:24.931Z,3.20
2023-05-06T17:49:53.690Z,3.10
2023-05-06T17:52:21.938Z,3.10
2023-05-06T17:55:05.662Z,3.33
2023-05-06T17:57:38.037Z,2.80
2023-05-06T18:00:09.757Z,2.50
2023-05-06T18:02:37.895Z,2.80
2023-05-06T18:05:07.078Z,3.30
2023-05-06T18:07:36.083Z,2.90
2023-05-06T18:10:04.059Z,2.53
2023-05-06T18:12:31.922Z,3.10
2023-05-06T18:15:00.724Z,3.50
2023-05-06T18:17:30.205Z,2.80
2023-05-06T18:19:58.356Z,2.63
2023-05-06T18:22:26.264Z,2.47
2023-05-06T18:24:55.457Z,3.20
2023-05-06T18:27:23.575Z,3.17
2023-05-06T18:29:51.568Z,3.40
2023-05-06T18:32:19.651Z,3.63
2023-05-06T18:34:49.273Z,3.37
2023-05-06T18:37:17.329Z,3.70
2023-05-06T18:39:45.516Z,3.47
2023-05-06T18:42:13.847Z,3.10
2023-05-06T18:44:42.894Z,3.43
2023-05-06T18:47:11.235Z,3.17
2023-05-06T18:49:39.294Z,3.10
2023-05-06T18:52:08.728Z,2.77
2023-05-06T18:54:36.764Z,2.90
2023-05-06T18:57:04.884Z,2.60
2023-05-06T18:59:33.657Z,2.50
2023-05-06T19:02:03.866Z,3.60
2023-05-06T19:04:32.799Z,3.43
2023-05-06T19:07:01.178Z,3.37
2023-05-06T19:09:32.922Z,3.50
2023-05-06T19:12:00.937Z,3.60
2023-05-06T19:14:29.012Z,3.57
2023-05-06T19:16:57.078Z,3.37
2023-05-06T19:19:25.018Z,3.70
2023-05-06T19:21:53.175Z,3.20
2023-05-06T19:24:21.412Z,3.30
2023-05-06T19:26:51.055Z,3.47
2023-05-06T19:29:22.666Z,3.83
2023-05-06T19:31:50.799Z,4.00
2023-05-06T19:34:18.651Z,3.90
2023-05-06T19:36:46.526Z,3.63
2023-05-06T19:39:14.415Z,3.40
2023-05-06T19:41:42.425Z,3.63
2023-05-06T19:44:11.712Z,3.87
2023-05-06T19:46:39.679Z,3.83
2023-05-06T19:51:42.992Z,3.67
2023-05-06T19:54:11.119Z,3.40
2023-05-06T19:56:39.190Z,3.30
2023-05-06T19:59:07.113Z,3.40
2023-05-06T20:01:36.409Z,3.30
2023-05-06T20:04:04.489Z,2.80
2023-05-06T20:06:33.164Z,3.10
2023-05-06T20:09:01.129Z,3.33
2023-05-06T20:11:29.148Z,3.50
2023-05-06T20:13:57.035Z,3.50
2023-05-06T20:16:24.984Z,4.00
2023-05-06T20:18:55.528Z,4.30
2023-05-06T20:21:23.436Z,3.60
2023-05-06T20:23:51.653Z,3.77
2023-05-06T20:26:21.006Z,3.90
2023-05-06T20:28:49.742Z,4.37
2023-05-06T20:31:17.663Z,4.13
2023-05-06T20:33:46.053Z,4.17
2023-05-06T20:36:15.988Z,3.67
2023-05-06T20:38:43.882Z,3.37
2023-05-06T20:41:11.762Z,3.83
2023-05-06T20:43:40.304Z,3.70
2023-05-06T20:46:08.203Z,3.30
2023-05-06T20:48:36.189Z,3.87
2023-05-06T20:51:04.204Z,4.30
2023-05-06T20:53:33.915Z,4.30
2023-05-06T20:56:01.795Z,3.50
2023-05-06T20:58:29.669Z,3.40
2023-05-06T21:00:57.695Z,4.30
2023-05-06T21:03:26.561Z,4.20
2023-05-06T21:05:54.492Z,4.10
2023-05-06T21:08:22.427Z,4.30
2023-05-06T21:10:51.779Z,4.47
2023-05-06T21:13:19.787Z,4.17
2023-05-06T21:15:47.846Z,3.90
2023-05-06T21:18:16.596Z,4.27
2023-05-06T21:20:44.700Z,3.87
2023-05-06T21:23:12.590Z,3.80
2023-05-06T21:25:40.456Z,4.10
2023-05-06T21:28:09.756Z,4.70
2023-05-06T21:30:37.848Z,4.60
2023-05-06T21:33:11.271Z,4.40
2023-05-06T21:35:39.356Z,4.50
2023-05-06T21:38:07.993Z,4.37
2023-05-06T21:40:35.879Z,4.07
2023-05-06T21:43:03.981Z,4.60
2023-05-06T21:45:33.219Z,4.33
2023-05-06T21:48:01.218Z,4.03
2023-05-06T21:50:29.763Z,4.20
2023-05-06T21:52:58.002Z,4.07
2023-05-06T21:55:27.742Z,4.13
2023-05-06T21:57:55.619Z,3.73
2023-05-06T22:00:23.490Z,4.00
2023-05-06T22:02:53.580Z,3.73
2023-05-06T22:05:21.611Z,3.93
2023-05-06T22:07:49.552Z,3.80
2023-05-06T22:10:17.416Z,3.80
2023-05-06T22:12:45.284Z,4.47
2023-05-06T22:15:14.695Z,4.13
2023-05-06T22:17:42.576Z,4.50
2023-05-06T22:20:12.615Z,4.40
2023-05-06T22:22:40.725Z,4.13
2023-05-06T22:25:09.448Z,4.70
2023-05-06T22:27:37.595Z,4.63
2023-05-06T22:30:06.010Z,4.60
2023-05-06T22:32:33.988Z,4.53
2023-05-06T22:35:01.897Z,4.67
2023-05-06T22:37:32.016Z,4.17
2023-05-06T22:39:59.866Z,4.50
2023-05-06T22:42:27.810Z,4.53
2023-05-06T22:44:55.657Z,4.73
2023-05-06T22:47:23.526Z,5.73
2023-05-06T22:49:51.474Z,4.80
2023-05-06T22:52:20.261Z,5.10
2023-05-06T22:54:49.512Z,4.80
2023-05-06T22:57:19.182Z,5.20
2023-05-06T22:59:47.288Z,4.33
2023-05-06T23:02:15.137Z,4.27
2023-05-06T23:04:43.064Z,4.50
2023-05-06T23:07:10.991Z,4.43
2023-05-06T23:09:38.910Z,4.67
2023-05-06T23:12:08.343Z,3.97
2023-05-06T23:14:36.184Z,4.27
2023-05-06T23:17:04.075Z,4.60
2023-05-06T23:19:32.402Z,4.60
2023-05-06T23:22:00.461Z,4.47
2023-05-06T23:24:28.315Z,4.00
2023-05-06T23:26:56.213Z,4.47
2023-05-06T23:29:25.478Z,4.50
2023-05-06T23:31:53.330Z,4.50
2023-05-06T23:34:21.214Z,4.87
2023-05-06T23:36:49.057Z,4.27
2023-05-06T23:39:17.584Z,4.17
2023-05-06T23:41:45.521Z,4.30
2023-05-06T23:44:13.364Z,4.60
2023-05-06T23:46:42.646Z,4.50
2023-05-06T23:49:10.689Z,4.20
2023-05-06T23:51:38.576Z,4.60
2023-05-06T23:54:06.515Z,4.30
2023-05-06T23:56:34.799Z,3.87
2023-05-06T23:59:02.688Z,4.10
